sensor_id;sensor_type;location;lat;lon;timestamp;P1;durP1;ratioP1;P2;durP2;ratioP2
65145;SDS011;51730;56.950;24.126;2022-12-18T00:03:42;91.85;;;26.80;;
65145;SDS011;51730;56.950;24.126;2022-12-18T00:06:11;90.95;;;25.35;;
65145;SDS011;51730;56.950;24.126;2022-12-18T00:08:38;83.50;;;23.88;;
65145;SDS011;51730;56.950;24.126;2022-12-18T00:11:05;91.28;;;24.85;;
65145;SDS011;51730;56.950;24.126;2022-12-18T00:13:33;87.25;;;25.02;;
65145;SDS011;51730;56.950;24.126;2022-12-18T00:16:05;80.25;;;24.50;;
65145;SDS011;51730;56.950;24.126;2022-12-18T00:18:37;88.80;;;25.73;;
65145;SDS011;51730;56.950;24.126;2022-12-18T00:21:07;79.22;;;23.38;;
65145;SDS011;51730;56.950;24.126;2022-12-18T00:23:36;85.63;;;24.25;;
65145;SDS011;51730;56.950;24.126;2022-12-18T00:26:06;83.70;;;24.73;;
65145;SDS011;51730;56.950;24.126;2022-12-18T00:28:36;79.40;;;22.95;;
65145;SDS011;51730;56.950;24.126;2022-12-18T00:31:03;62.25;;;20.25;;
65145;SDS011;51730;56.950;24.126;2022-12-18T00:33:32;62.90;;;19.05;;
65145;SDS011;51730;56.950;24.126;2022-12-18T00:38:58;62.95;;;18.98;;
65145;SDS011;51730;56.950;24.126;2022-12-18T00:41:27;62.63;;;18.70;;
65145;SDS011;51730;56.950;24.126;2022-12-18T00:44:14;56.05;;;18.15;;
65145;SDS011;51730;56.950;24.126;2022-12-18T00:46:42;47.80;;;16.02;;
65145;SDS011;51730;56.950;24.126;2022-12-18T00:49:10;53.60;;;15.80;;
65145;SDS011;51730;56.950;24.126;2022-12-18T00:51:38;48.28;;;14.52;;
65145;SDS011;51730;56.950;24.126;2022-12-18T00:54:05;43.80;;;14.68;;
65145;SDS011;51730;56.950;24.126;2022-12-18T00:56:32;50.92;;;15.52;;
65145;SDS011;51730;56.950;24.126;2022-12-18T00:59:10;55.95;;;16.35;;
65145;SDS011;51730;56.950;24.126;2022-12-18T01:01:37;55.10;;;15.52;;
65145;SDS011;51730;56.950;24.126;2022-12-18T01:04:05;50.60;;;16.23;;
65145;SDS011;51730;56.950;24.126;2022-12-18T01:06:32;56.97;;;15.48;;
65145;SDS011;51730;56.950;24.126;2022-12-18T01:08:59;46.10;;;14.38;;
65145;SDS011;51730;56.950;24.126;2022-12-18T01:11:25;46.20;;;13.68;;
65145;SDS011;51730;56.950;24.126;2022-12-18T01:13:53;35.95;;;12.55;;
65145;SDS011;51730;56.950;24.126;2022-12-18T01:16:21;47.13;;;13.43;;
65145;SDS011;51730;56.950;24.126;2022-12-18T01:18:51;48.25;;;17.48;;
65145;SDS011;51730;56.950;24.126;2022-12-18T01:21:20;54.60;;;17.42;;
65145;SDS011;51730;56.950;24.126;2022-12-18T01:23:50;59.55;;;17.73;;
65145;SDS011;51730;56.950;24.126;2022-12-18T01:28:46;62.30;;;18.88;;
65145;SDS011;51730;56.950;24.126;2022-12-18T01:31:15;59.83;;;19.48;;
65145;SDS011;51730;56.950;24.126;2022-12-18T01:33:42;64.93;;;18.42;;
65145;SDS011;51730;56.950;24.126;2022-12-18T01:36:43;56.88;;;17.95;;
65145;SDS011;51730;56.950;24.126;2022-12-18T01:39:10;62.60;;;17.85;;
65145;SDS011;51730;56.950;24.126;2022-12-18T01:41:38;61.05;;;18.48;;
65145;SDS011;51730;56.950;24.126;2022-12-18T01:47:30;55.45;;;16.77;;
65145;SDS011;51730;56.950;24.126;2022-12-18T01:50:13;59.78;;;18.48;;
65145;SDS011;51730;56.950;24.126;2022-12-18T01:55:32;62.17;;;19.17;;
65145;SDS011;51730;56.950;24.126;2022-12-18T01:58:04;60.97;;;19.27;;
65145;SDS011;51730;56.950;24.126;2022-12-18T02:00:31;68.10;;;20.50;;
65145;SDS011;51730;56.950;24.126;2022-12-18T02:02:58;58.60;;;17.67;;
65145;SDS011;51730;56.950;24.126;2022-12-18T02:06:10;59.58;;;19.95;;
65145;SDS011;51730;56.950;24.126;2022-12-18T02:25:08;50.72;;;15.98;;
65145;SDS011;51730;56.950;24.126;2022-12-18T02:27:40;41.38;;;14.80;;
65145;SDS011;51730;56.950;24.126;2022-12-18T02:30:10;39.03;;;15.43;;
65145;SDS011;51730;56.950;24.126;2022-12-18T02:32:38;47.67;;;14.85;;
65145;SDS011;51730;56.950;24.126;2022-12-18T02:35:12;47.15;;;14.77;;
65145;SDS011;51730;56.950;24.126;2022-12-18T02:37:43;41.05;;;14.25;;
65145;SDS011;51730;56.950;24.126;2022-12-18T02:40:13;47.53;;;13.77;;
65145;SDS011;51730;56.950;24.126;2022-12-18T02:42:41;41.45;;;13.68;;
65145;SDS011;51730;56.950;24.126;2022-12-18T02:45:08;42.80;;;15.52;;
65145;SDS011;51730;56.950;24.126;2022-12-18T02:47:37;39.05;;;13.23;;
65145;SDS011;51730;56.950;24.126;2022-12-18T03:01:21;35.38;;;12.27;;
65145;SDS011;51730;56.950;24.126;2022-12-18T03:04:00;38.63;;;12.88;;
65145;SDS011;51730;56.950;24.126;2022-12-18T03:06:32;36.05;;;12.27;;
65145;SDS011;51730;56.950;24.126;2022-12-18T03:09:08;39.42;;;12.85;;
65145;SDS011;51730;56.950;24.126;2022-12-18T03:11:39;35.75;;;11.43;;
65145;SDS011;51730;56.950;24.126;2022-12-18T03:14:28;31.85;;;11.55;;
65145;SDS011;51730;56.950;24.126;2022-12-18T03:16:59;34.60;;;10.90;;
65145;SDS011;51730;56.950;24.126;2022-12-18T03:19:31;33.00;;;10.85;;
65145;SDS011;51730;56.950;24.126;2022-12-18T03:22:00;39.58;;;12.77;;
65145;SDS011;51730;56.950;24.126;2022-12-18T03:24:29;37.38;;;12.13;;
65145;SDS011;51730;56.950;24.126;2022-12-18T03:26:59;38.58;;;10.52;;
65145;SDS011;51730;56.950;24.126;2022-12-18T03:29:33;27.40;;;11.43;;
65145;SDS011;51730;56.950;24.126;2022-12-18T03:32:19;38.92;;;12.95;;
65145;SDS011;51730;56.950;24.126;2022-12-18T03:34:50;38.35;;;11.35;;
65145;SDS011;51730;56.950;24.126;2022-12-18T03:37:20;37.45;;;12.38;;
65145;SDS011;51730;56.950;24.126;2022-12-18T03:39:47;27.92;;;10.52;;
65145;SDS011;51730;56.950;24.126;2022-12-18T03:45:08;35.15;;;12.45;;
65145;SDS011;51730;56.950;24.126;2022-12-18T03:50:22;23.10;;;9.05;;
65145;SDS011;51730;56.950;24.126;2022-12-18T03:55:38;24.63;;;9.77;;
65145;SDS011;51730;56.950;24.126;2022-12-18T03:58:06;24.45;;;9.65;;
65145;SDS011;51730;56.950;24.126;2022-12-18T04:00:35;22.90;;;9.65;;
65145;SDS011;51730;56.950;24.126;2022-12-18T04:03:02;25.23;;;9.55;;
65145;SDS011;51730;56.950;24.126;2022-12-18T04:05:31;28.38;;;9.55;;
65145;SDS011;51730;56.950;24.126;2022-12-18T04:07:59;27.65;;;9.98;;
65145;SDS011;51730;56.950;24.126;2022-12-18T04:10:27;25.95;;;9.88;;
65145;SDS011;51730;56.950;24.126;2022-12-18T04:12:57;23.33;;;9.10;;
65145;SDS011;51730;56.950;24.126;2022-12-18T04:15:24;24.55;;;8.93;;
65145;SDS011;51730;56.950;24.126;2022-12-18T04:17:52;20.52;;;8.10;;
65145;SDS011;51730;56.950;24.126;2022-12-18T04:20:19;21.13;;;9.05;;
65145;SDS011;51730;56.950;24.126;2022-12-18T04:22:45;26.75;;;10.00;;
65145;SDS011;51730;56.950;24.126;2022-12-18T04:25:13;22.30;;;9.05;;
65145;SDS011;51730;56.950;24.126;2022-12-18T04:27:40;25.05;;;9.50;;
65145;SDS011;51730;56.950;24.126;2022-12-18T04:30:07;23.38;;;9.38;;
65145;SDS011;51730;56.950;24.126;2022-12-18T04:32:35;26.13;;;10.20;;
65145;SDS011;51730;56.950;24.126;2022-12-18T04:35:02;22.92;;;8.63;;
65145;SDS011;51730;56.950;24.126;2022-12-18T04:37:30;24.27;;;8.40;;
65145;SDS011;51730;56.950;24.126;2022-12-18T04:39:57;23.80;;;8.95;;
65145;SDS011;51730;56.950;24.126;2022-12-18T04:42:24;25.52;;;8.35;;
65145;SDS011;51730;56.950;24.126;2022-12-18T04:44:51;27.77;;;9.57;;
65145;SDS011;51730;56.950;24.126;2022-12-18T04:47:18;25.60;;;9.93;;
65145;SDS011;51730;56.950;24.126;2022-12-18T04:49:45;26.33;;;10.93;;
65145;SDS011;51730;56.950;24.126;2022-12-18T04:52:12;25.27;;;10.40;;
65145;SDS011;51730;56.950;24.126;2022-12-18T04:54:39;21.90;;;9.48;;
65145;SDS011;51730;56.950;24.126;2022-12-18T04:57:05;29.45;;;11.50;;
65145;SDS011;51730;56.950;24.126;2022-12-18T04:59:32;26.27;;;10.80;;
65145;SDS011;51730;56.950;24.126;2022-12-18T05:01:59;24.90;;;10.27;;
65145;SDS011;51730;56.950;24.126;2022-12-18T05:04:27;27.70;;;12.05;;
65145;SDS011;51730;56.950;24.126;2022-12-18T05:06:54;29.73;;;13.20;;
65145;SDS011;51730;56.950;24.126;2022-12-18T05:09:21;23.00;;;11.00;;
65145;SDS011;51730;56.950;24.126;2022-12-18T05:11:49;28.75;;;11.27;;
65145;SDS011;51730;56.950;24.126;2022-12-18T05:14:16;26.67;;;11.32;;
65145;SDS011;51730;56.950;24.126;2022-12-18T05:16:43;25.73;;;10.65;;
65145;SDS011;51730;56.950;24.126;2022-12-18T05:19:11;23.17;;;10.38;;
65145;SDS011;51730;56.950;24.126;2022-12-18T05:21:38;33.38;;;13.27;;
65145;SDS011;51730;56.950;24.126;2022-12-18T05:24:05;23.08;;;11.35;;
65145;SDS011;51730;56.950;24.126;2022-12-18T05:26:32;28.45;;;13.63;;
65145;SDS011;51730;56.950;24.126;2022-12-18T05:29:01;26.80;;;12.57;;
65145;SDS011;51730;56.950;24.126;2022-12-18T05:31:28;25.63;;;11.70;;
65145;SDS011;51730;56.950;24.126;2022-12-18T05:34:02;27.30;;;12.02;;
65145;SDS011;51730;56.950;24.126;2022-12-18T05:36:29;24.90;;;10.88;;
65145;SDS011;51730;56.950;24.126;2022-12-18T05:38:56;29.00;;;11.57;;
65145;SDS011;51730;56.950;24.126;2022-12-18T05:41:23;25.08;;;11.38;;
65145;SDS011;51730;56.950;24.126;2022-12-18T05:43:50;28.90;;;12.88;;
65145;SDS011;51730;56.950;24.126;2022-12-18T05:46:17;25.60;;;11.85;;
65145;SDS011;51730;56.950;24.126;2022-12-18T05:48:44;29.27;;;12.43;;
65145;SDS011;51730;56.950;24.126;2022-12-18T05:51:12;25.50;;;11.65;;
65145;SDS011;51730;56.950;24.126;2022-12-18T05:53:42;30.38;;;13.27;;
65145;SDS011;51730;56.950;24.126;2022-12-18T05:56:10;29.73;;;12.43;;
65145;SDS011;51730;56.950;24.126;2022-12-18T05:58:45;26.25;;;11.48;;
65145;SDS011;51730;56.950;24.126;2022-12-18T06:01:19;26.50;;;10.60;;
65145;SDS011;51730;56.950;24.126;2022-12-18T06:03:49;28.15;;;11.18;;
65145;SDS011;51730;56.950;24.126;2022-12-18T06:06:17;28.52;;;10.80;;
65145;SDS011;51730;56.950;24.126;2022-12-18T06:08:49;28.35;;;10.98;;
65145;SDS011;51730;56.950;24.126;2022-12-18T06:11:18;29.58;;;10.80;;
65145;SDS011;51730;56.950;24.126;2022-12-18T06:13:46;23.23;;;9.70;;
65145;SDS011;51730;56.950;24.126;2022-12-18T06:16:23;25.27;;;10.00;;
65145;SDS011;51730;56.950;24.126;2022-12-18T06:18:50;27.55;;;11.38;;
65145;SDS011;51730;56.950;24.126;2022-12-18T06:21:17;23.73;;;10.05;;
65145;SDS011;51730;56.950;24.126;2022-12-18T06:23:44;22.88;;;9.95;;
65145;SDS011;51730;56.950;24.126;2022-12-18T06:26:11;22.15;;;9.23;;
65145;SDS011;51730;56.950;24.126;2022-12-18T06:28:39;27.98;;;10.60;;
65145;SDS011;51730;56.950;24.126;2022-12-18T06:31:07;23.70;;;9.68;;
65145;SDS011;51730;56.950;24.126;2022-12-18T06:33:35;25.58;;;10.63;;
65145;SDS011;51730;56.950;24.126;2022-12-18T06:36:07;27.33;;;11.02;;
65145;SDS011;51730;56.950;24.126;2022-12-18T06:38:38;26.75;;;8.95;;
65145;SDS011;51730;56.950;24.126;2022-12-18T06:41:08;23.65;;;8.80;;
65145;SDS011;51730;56.950;24.126;2022-12-18T06:43:36;24.30;;;9.50;;
65145;SDS011;51730;56.950;24.126;2022-12-18T06:46:04;26.73;;;10.38;;
65145;SDS011;51730;56.950;24.126;2022-12-18T06:48:32;27.17;;;10.32;;
65145;SDS011;51730;56.950;24.126;2022-12-18T06:50:59;27.08;;;10.68;;
65145;SDS011;51730;56.950;24.126;2022-12-18T06:53:26;21.00;;;9.32;;
65145;SDS011;51730;56.950;24.126;2022-12-18T06:56:03;28.40;;;11.05;;
65145;SDS011;51730;56.950;24.126;2022-12-18T06:58:35;23.23;;;9.75;;
65145;SDS011;51730;56.950;24.126;2022-12-18T07:01:04;28.95;;;9.55;;
65145;SDS011;51730;56.950;24.126;2022-12-18T07:03:32;23.58;;;9.18;;
65145;SDS011;51730;56.950;24.126;2022-12-18T07:05:59;27.70;;;9.82;;
65145;SDS011;51730;56.950;24.126;2022-12-18T07:08:26;26.20;;;9.75;;
65145;SDS011;51730;56.950;24.126;2022-12-18T07:10:54;24.20;;;9.32;;
65145;SDS011;51730;56.950;24.126;2022-12-18T07:13:21;24.33;;;9.98;;
65145;SDS011;51730;56.950;24.126;2022-12-18T07:15:48;24.88;;;10.75;;
65145;SDS011;51730;56.950;24.126;2022-12-18T07:18:15;28.30;;;10.43;;
65145;SDS011;51730;56.950;24.126;2022-12-18T07:20:42;27.27;;;9.80;;
65145;SDS011;51730;56.950;24.126;2022-12-18T07:23:11;23.45;;;9.88;;
65145;SDS011;51730;56.950;24.126;2022-12-18T07:25:38;23.88;;;9.98;;
65145;SDS011;51730;56.950;24.126;2022-12-18T07:28:05;26.75;;;10.07;;
65145;SDS011;51730;56.950;24.126;2022-12-18T07:30:37;25.05;;;10.00;;
65145;SDS011;51730;56.950;24.126;2022-12-18T07:33:04;24.05;;;10.27;;
65145;SDS011;51730;56.950;24.126;2022-12-18T07:35:32;26.90;;;10.68;;
65145;SDS011;51730;56.950;24.126;2022-12-18T07:37:59;27.55;;;12.27;;
65145;SDS011;51730;56.950;24.126;2022-12-18T07:40:29;30.30;;;11.50;;
65145;SDS011;51730;56.950;24.126;2022-12-18T07:42:56;27.05;;;11.00;;
65145;SDS011;51730;56.950;24.126;2022-12-18T07:45:23;31.08;;;11.18;;
65145;SDS011;51730;56.950;24.126;2022-12-18T07:47:50;29.35;;;12.32;;
65145;SDS011;51730;56.950;24.126;2022-12-18T07:50:17;29.30;;;11.35;;
65145;SDS011;51730;56.950;24.126;2022-12-18T07:52:44;32.47;;;13.20;;
65145;SDS011;51730;56.950;24.126;2022-12-18T07:55:11;32.35;;;12.63;;
65145;SDS011;51730;56.950;24.126;2022-12-18T07:57:38;33.85;;;14.02;;
65145;SDS011;51730;56.950;24.126;2022-12-18T08:00:19;37.03;;;14.30;;
65145;SDS011;51730;56.950;24.126;2022-12-18T08:02:46;186.27;;;51.75;;
65145;SDS011;51730;56.950;24.126;2022-12-18T08:05:13;342.10;;;101.45;;
65145;SDS011;51730;56.950;24.126;2022-12-18T08:07:40;284.25;;;87.32;;
65145;SDS011;51730;56.950;24.126;2022-12-18T08:10:07;263.33;;;82.18;;
65145;SDS011;51730;56.950;24.126;2022-12-18T08:12:34;178.77;;;55.40;;
65145;SDS011;51730;56.950;24.126;2022-12-18T08:15:01;121.10;;;36.38;;
65145;SDS011;51730;56.950;24.126;2022-12-18T08:17:29;91.78;;;26.65;;
65145;SDS011;51730;56.950;24.126;2022-12-18T08:19:56;76.88;;;24.60;;
65145;SDS011;51730;56.950;24.126;2022-12-18T08:22:23;67.70;;;21.38;;
65145;SDS011;51730;56.950;24.126;2022-12-18T08:24:50;74.07;;;24.73;;
65145;SDS011;51730;56.950;24.126;2022-12-18T08:27:17;72.32;;;22.60;;
65145;SDS011;51730;56.950;24.126;2022-12-18T08:29:59;86.65;;;26.33;;
65145;SDS011;51730;56.950;24.126;2022-12-18T08:32:26;94.30;;;28.10;;
65145;SDS011;51730;56.950;24.126;2022-12-18T08:34:54;80.47;;;24.38;;
65145;SDS011;51730;56.950;24.126;2022-12-18T08:37:21;84.68;;;24.63;;
65145;SDS011;51730;56.950;24.126;2022-12-18T08:39:48;73.70;;;22.83;;
65145;SDS011;51730;56.950;24.126;2022-12-18T08:42:15;70.40;;;21.50;;
65145;SDS011;51730;56.950;24.126;2022-12-18T08:45:00;54.85;;;18.02;;
65145;SDS011;51730;56.950;24.126;2022-12-18T08:47:28;53.15;;;19.52;;
65145;SDS011;51730;56.950;24.126;2022-12-18T08:49:55;56.30;;;19.63;;
65145;SDS011;51730;56.950;24.126;2022-12-18T08:52:22;54.60;;;18.25;;
65145;SDS011;51730;56.950;24.126;2022-12-18T08:54:49;46.35;;;17.27;;
65145;SDS011;51730;56.950;24.126;2022-12-18T08:57:16;52.22;;;18.50;;
65145;SDS011;51730;56.950;24.126;2022-12-18T08:59:42;43.17;;;14.95;;
65145;SDS011;51730;56.950;24.126;2022-12-18T09:02:10;41.20;;;15.10;;
65145;SDS011;51730;56.950;24.126;2022-12-18T09:04:39;36.30;;;14.43;;
65145;SDS011;51730;56.950;24.126;2022-12-18T09:07:07;32.65;;;13.82;;
65145;SDS011;51730;56.950;24.126;2022-12-18T09:09:34;36.70;;;15.10;;
65145;SDS011;51730;56.950;24.126;2022-12-18T09:12:01;34.13;;;13.30;;
65145;SDS011;51730;56.950;24.126;2022-12-18T09:14:28;33.33;;;12.48;;
65145;SDS011;51730;56.950;24.126;2022-12-18T09:16:56;34.70;;;13.45;;
65145;SDS011;51730;56.950;24.126;2022-12-18T09:19:22;34.67;;;12.88;;
65145;SDS011;51730;56.950;24.126;2022-12-18T09:21:49;26.73;;;12.68;;
65145;SDS011;51730;56.950;24.126;2022-12-18T09:24:16;67.18;;;16.40;;
65145;SDS011;51730;56.950;24.126;2022-12-18T09:26:43;27.08;;;12.32;;
65145;SDS011;51730;56.950;24.126;2022-12-18T09:29:13;29.80;;;13.23;;
65145;SDS011;51730;56.950;24.126;2022-12-18T09:31:42;31.33;;;11.73;;
65145;SDS011;51730;56.950;24.126;2022-12-18T09:34:08;32.90;;;14.05;;
65145;SDS011;51730;56.950;24.126;2022-12-18T09:36:35;30.02;;;13.25;;
65145;SDS011;51730;56.950;24.126;2022-12-18T09:39:02;27.88;;;12.30;;
65145;SDS011;51730;56.950;24.126;2022-12-18T09:47:02;30.23;;;12.77;;
65145;SDS011;51730;56.950;24.126;2022-12-18T09:49:46;31.00;;;12.93;;
65145;SDS011;51730;56.950;24.126;2022-12-18T09:54:51;32.17;;;13.68;;
65145;SDS011;51730;56.950;24.126;2022-12-18T09:57:24;30.20;;;12.77;;
65145;SDS011;51730;56.950;24.126;2022-12-18T09:59:56;30.17;;;13.82;;
65145;SDS011;51730;56.950;24.126;2022-12-18T10:02:47;28.65;;;12.55;;
65145;SDS011;51730;56.950;24.126;2022-12-18T10:08:27;35.47;;;13.10;;
65145;SDS011;51730;56.950;24.126;2022-12-18T10:22:19;35.67;;;14.30;;
65145;SDS011;51730;56.950;24.126;2022-12-18T10:24:56;35.65;;;15.65;;
65145;SDS011;51730;56.950;24.126;2022-12-18T10:27:44;37.58;;;16.05;;
65145;SDS011;51730;56.950;24.126;2022-12-18T10:30:13;35.53;;;15.05;;
65145;SDS011;51730;56.950;24.126;2022-12-18T10:32:42;34.63;;;15.20;;
65145;SDS011;51730;56.950;24.126;2022-12-18T10:35:17;31.95;;;14.75;;
65145;SDS011;51730;56.950;24.126;2022-12-18T10:43:27;35.50;;;14.40;;
65145;SDS011;51730;56.950;24.126;2022-12-18T10:51:25;39.28;;;15.18;;
65145;SDS011;51730;56.950;24.126;2022-12-18T10:53:57;33.80;;;14.52;;
65145;SDS011;51730;56.950;24.126;2022-12-18T10:56:28;41.40;;;16.35;;
65145;SDS011;51730;56.950;24.126;2022-12-18T10:59:01;40.40;;;18.42;;
65145;SDS011;51730;56.950;24.126;2022-12-18T11:01:50;36.35;;;16.02;;
65145;SDS011;51730;56.950;24.126;2022-12-18T11:04:31;32.90;;;15.10;;
65145;SDS011;51730;56.950;24.126;2022-12-18T11:07:02;35.97;;;15.70;;
65145;SDS011;51730;56.950;24.126;2022-12-18T11:09:31;32.50;;;14.27;;
65145;SDS011;51730;56.950;24.126;2022-12-18T11:12:15;32.67;;;13.43;;
65145;SDS011;51730;56.950;24.126;2022-12-18T11:17:19;33.40;;;15.05;;
65145;SDS011;51730;56.950;24.126;2022-12-18T11:19:58;32.13;;;13.88;;
65145;SDS011;51730;56.950;24.126;2022-12-18T11:22:30;36.00;;;15.13;;
65145;SDS011;51730;56.950;24.126;2022-12-18T11:25:04;35.25;;;14.63;;
65145;SDS011;51730;56.950;24.126;2022-12-18T11:30:30;37.97;;;14.45;;
65145;SDS011;51730;56.950;24.126;2022-12-18T11:33:10;38.90;;;13.70;;
65145;SDS011;51730;56.950;24.126;2022-12-18T11:35:55;32.45;;;14.85;;
65145;SDS011;51730;56.950;24.126;2022-12-18T11:38:32;33.72;;;14.10;;
65145;SDS011;51730;56.950;24.126;2022-12-18T11:43:38;35.05;;;13.73;;
65145;SDS011;51730;56.950;24.126;2022-12-18T11:46:12;31.75;;;13.25;;
65145;SDS011;51730;56.950;24.126;2022-12-18T11:51:14;31.10;;;13.23;;
65145;SDS011;51730;56.950;24.126;2022-12-18T11:53:53;29.42;;;13.02;;
65145;SDS011;51730;56.950;24.126;2022-12-18T11:56:31;34.72;;;14.23;;
65145;SDS011;51730;56.950;24.126;2022-12-18T12:01:49;29.60;;;12.88;;
65145;SDS011;51730;56.950;24.126;2022-12-18T12:04:44;32.13;;;12.13;;
65145;SDS011;51730;56.950;24.126;2022-12-18T12:20:45;33.10;;;13.85;;
65145;SDS011;51730;56.950;24.126;2022-12-18T12:25:56;38.20;;;15.48;;
65145;SDS011;51730;56.950;24.126;2022-12-18T12:40:21;40.58;;;16.95;;
65145;SDS011;51730;56.950;24.126;2022-12-18T12:45:53;60.28;;;22.15;;
65145;SDS011;51730;56.950;24.126;2022-12-18T12:48:34;69.40;;;26.10;;
65145;SDS011;51730;56.950;24.126;2022-12-18T12:51:29;48.80;;;19.25;;
65145;SDS011;51730;56.950;24.126;2022-12-18T12:59:22;40.13;;;16.45;;
65145;SDS011;51730;56.950;24.126;2022-12-18T13:05:05;32.15;;;14.30;;
65145;SDS011;51730;56.950;24.126;2022-12-18T13:13:10;39.05;;;14.95;;
65145;SDS011;51730;56.950;24.126;2022-12-18T13:15:49;27.80;;;13.15;;
65145;SDS011;51730;56.950;24.126;2022-12-18T13:18:33;27.05;;;12.35;;
65145;SDS011;51730;56.950;24.126;2022-12-18T13:21:02;33.67;;;14.25;;
65145;SDS011;51730;56.950;24.126;2022-12-18T13:23:37;29.80;;;13.10;;
65145;SDS011;51730;56.950;24.126;2022-12-18T13:34:24;33.88;;;14.63;;
65145;SDS011;51730;56.950;24.126;2022-12-18T13:36:56;36.53;;;15.25;;
65145;SDS011;51730;56.950;24.126;2022-12-18T13:39:43;33.20;;;15.02;;
65145;SDS011;51730;56.950;24.126;2022-12-18T13:44:58;35.03;;;14.73;;
65145;SDS011;51730;56.950;24.126;2022-12-18T13:49:54;30.85;;;13.75;;
65145;SDS011;51730;56.950;24.126;2022-12-18T13:52:33;28.98;;;12.88;;
65145;SDS011;51730;56.950;24.126;2022-12-18T13:55:05;34.47;;;12.75;;
65145;SDS011;51730;56.950;24.126;2022-12-18T13:57:41;29.00;;;13.18;;
65145;SDS011;51730;56.950;24.126;2022-12-18T14:00:24;33.28;;;14.38;;
65145;SDS011;51730;56.950;24.126;2022-12-18T14:02:55;32.47;;;13.00;;
65145;SDS011;51730;56.950;24.126;2022-12-18T14:05:42;29.98;;;12.93;;
65145;SDS011;51730;56.950;24.126;2022-12-18T14:08:16;28.55;;;12.77;;
65145;SDS011;51730;56.950;24.126;2022-12-18T14:10:45;31.85;;;13.77;;
65145;SDS011;51730;56.950;24.126;2022-12-18T14:13:17;28.00;;;12.55;;
65145;SDS011;51730;56.950;24.126;2022-12-18T14:15:56;33.42;;;12.70;;
65145;SDS011;51730;56.950;24.126;2022-12-18T14:21:25;32.15;;;13.38;;
65145;SDS011;51730;56.950;24.126;2022-12-18T14:24:03;34.90;;;13.55;;
65145;SDS011;51730;56.950;24.126;2022-12-18T14:26:32;31.95;;;13.10;;
65145;SDS011;51730;56.950;24.126;2022-12-18T14:29:01;26.65;;;12.57;;
65145;SDS011;51730;56.950;24.126;2022-12-18T14:31:45;39.58;;;14.50;;
65145;SDS011;51730;56.950;24.126;2022-12-18T14:34:15;32.65;;;13.27;;
65145;SDS011;51730;56.950;24.126;2022-12-18T14:36:51;29.65;;;13.63;;
65145;SDS011;51730;56.950;24.126;2022-12-18T14:39:20;34.47;;;14.55;;
65145;SDS011;51730;56.950;24.126;2022-12-18T14:41:50;29.33;;;13.02;;
65145;SDS011;51730;56.950;24.126;2022-12-18T14:44:18;28.58;;;13.25;;
65145;SDS011;51730;56.950;24.126;2022-12-18T14:46:48;29.00;;;12.32;;
65145;SDS011;51730;56.950;24.126;2022-12-18T14:51:50;28.08;;;12.20;;
65145;SDS011;51730;56.950;24.126;2022-12-18T14:54:23;32.28;;;14.00;;
65145;SDS011;51730;56.950;24.126;2022-12-18T14:57:01;31.73;;;14.45;;
65145;SDS011;51730;56.950;24.126;2022-12-18T14:59:39;51.95;;;18.23;;
65145;SDS011;51730;56.950;24.126;2022-12-18T15:04:45;37.10;;;13.77;;
65145;SDS011;51730;56.950;24.126;2022-12-18T15:07:19;35.80;;;13.25;;
65145;SDS011;51730;56.950;24.126;2022-12-18T15:20:52;31.17;;;12.73;;
65145;SDS011;51730;56.950;24.126;2022-12-18T15:23:27;34.70;;;14.70;;
65145;SDS011;51730;56.950;24.126;2022-12-18T15:28:36;33.95;;;14.23;;
65145;SDS011;51730;56.950;24.126;2022-12-18T15:33:40;33.33;;;15.88;;
65145;SDS011;51730;56.950;24.126;2022-12-18T15:36:16;28.00;;;13.55;;
65145;SDS011;51730;56.950;24.126;2022-12-18T15:38:52;37.22;;;14.77;;
65145;SDS011;51730;56.950;24.126;2022-12-18T15:41:30;34.97;;;15.88;;
65145;SDS011;51730;56.950;24.126;2022-12-18T15:44:01;34.45;;;14.13;;
65145;SDS011;51730;56.950;24.126;2022-12-18T15:46:29;36.97;;;15.38;;
65145;SDS011;51730;56.950;24.126;2022-12-18T15:48:57;39.55;;;15.85;;
65145;SDS011;51730;56.950;24.126;2022-12-18T15:51:28;37.22;;;15.40;;
65145;SDS011;51730;56.950;24.126;2022-12-18T15:54:01;30.83;;;14.40;;
65145;SDS011;51730;56.950;24.126;2022-12-18T15:56:30;30.42;;;14.23;;
65145;SDS011;51730;56.950;24.126;2022-12-18T15:59:17;34.67;;;15.00;;
65145;SDS011;51730;56.950;24.126;2022-12-18T16:01:46;26.42;;;12.57;;
65145;SDS011;51730;56.950;24.126;2022-12-18T16:04:15;33.28;;;13.60;;
65145;SDS011;51730;56.950;24.126;2022-12-18T16:06:46;30.50;;;12.55;;
65145;SDS011;51730;56.950;24.126;2022-12-18T16:09:34;26.52;;;13.60;;
65145;SDS011;51730;56.950;24.126;2022-12-18T16:12:01;49.88;;;17.13;;
65145;SDS011;51730;56.950;24.126;2022-12-18T16:14:29;34.60;;;14.80;;
65145;SDS011;51730;56.950;24.126;2022-12-18T16:19:25;32.92;;;13.30;;
65145;SDS011;51730;56.950;24.126;2022-12-18T16:21:53;34.60;;;15.35;;
65145;SDS011;51730;56.950;24.126;2022-12-18T16:24:23;30.92;;;15.15;;
65145;SDS011;51730;56.950;24.126;2022-12-18T16:26:51;45.65;;;16.60;;
65145;SDS011;51730;56.950;24.126;2022-12-18T16:29:20;42.25;;;17.15;;
65145;SDS011;51730;56.950;24.126;2022-12-18T16:31:50;32.35;;;13.73;;
65145;SDS011;51730;56.950;24.126;2022-12-18T16:36:55;33.15;;;14.93;;
65145;SDS011;51730;56.950;24.126;2022-12-18T16:39:30;30.45;;;12.55;;
65145;SDS011;51730;56.950;24.126;2022-12-18T16:41:59;27.75;;;12.95;;
65145;SDS011;51730;56.950;24.126;2022-12-18T16:44:31;33.70;;;12.90;;
65145;SDS011;51730;56.950;24.126;2022-12-18T16:46:59;27.55;;;11.40;;
65145;SDS011;51730;56.950;24.126;2022-12-18T16:49:28;24.67;;;10.63;;
65145;SDS011;51730;56.950;24.126;2022-12-18T16:51:55;24.73;;;11.18;;
65145;SDS011;51730;56.950;24.126;2022-12-18T16:54:23;27.25;;;13.88;;
65145;SDS011;51730;56.950;24.126;2022-12-18T16:56:53;31.88;;;14.55;;
65145;SDS011;51730;56.950;24.126;2022-12-18T16:59:20;27.35;;;10.80;;
65145;SDS011;51730;56.950;24.126;2022-12-18T17:01:47;22.15;;;9.80;;
65145;SDS011;51730;56.950;24.126;2022-12-18T17:04:14;20.77;;;9.70;;
65145;SDS011;51730;56.950;24.126;2022-12-18T17:06:43;24.98;;;9.88;;
65145;SDS011;51730;56.950;24.126;2022-12-18T17:09:12;26.98;;;10.60;;
65145;SDS011;51730;56.950;24.126;2022-12-18T17:11:41;25.02;;;9.55;;
65145;SDS011;51730;56.950;24.126;2022-12-18T17:14:10;27.20;;;10.60;;
65145;SDS011;51730;56.950;24.126;2022-12-18T17:16:39;23.38;;;9.95;;
65145;SDS011;51730;56.950;24.126;2022-12-18T17:19:06;23.55;;;9.13;;
65145;SDS011;51730;56.950;24.126;2022-12-18T17:21:42;23.85;;;9.63;;
65145;SDS011;51730;56.950;24.126;2022-12-18T17:24:10;19.30;;;8.50;;
65145;SDS011;51730;56.950;24.126;2022-12-18T17:26:37;22.55;;;9.65;;
65145;SDS011;51730;56.950;24.126;2022-12-18T17:29:04;24.23;;;10.45;;
65145;SDS011;51730;56.950;24.126;2022-12-18T17:31:32;25.55;;;10.57;;
65145;SDS011;51730;56.950;24.126;2022-12-18T17:34:02;20.80;;;9.90;;
65145;SDS011;51730;56.950;24.126;2022-12-18T17:36:29;22.85;;;10.15;;